Arun — FGD9919 — position and weather

sailwx.info

Track history (hours):
 
Tides and Currents Weather Stations Pressure Air Temp Water Temp Dewpoint Dewpoint Depression Visibility Wind Speed Wind Dir Waves Ship Positions

Arun

Last reported at 2018-Feb-23 16:18 UTC. Time now 2018-Feb-25 08:21 UTC.
Position N 48°23' W 004°30'.

Length 35 m; draft 1.7 m.

Type: Passenger vessel. MMSI: 227612860.

Date/timePositionNaut miles runAvg speedWind from/ knotsBaromVisibWave heightAir tempDewpointWater temp
2018-Feb-23 16:18N 48°23' W 004°30'2 6.9
2018-Feb-23 16:00N 48°21' W 004°29'3 6.2
2018-Feb-23 15:29N 48°18' W 004°31'510.5
2018-Feb-23 14:59N 48°23' W 004°30'0 0.0
2018-Feb-23 14:29N 48°23' W 004°30'0 0.0
2018-Feb-23 13:59N 48°23' W 004°30'0 0.0
2018-Feb-23 13:29N 48°23' W 004°30'0 0.0
2018-Feb-23 12:59N 48°23' W 004°30'0 0.0
2018-Feb-23 12:29N 48°23' W 004°30'0 0.0
2018-Feb-23 11:59N 48°23' W 004°30'0 0.0
2018-Feb-23 11:30N 48°23' W 004°30'510.5
2018-Feb-23 11:00N 48°18' W 004°31'4 7.9
2018-Feb-23 10:31N 48°17' W 004°25'712.5
2018-Feb-23 09:58N 48°23' W 004°30'0 0.0
2018-Feb-23 07:45N 48°23' W 004°30'0 0.1
2018-Feb-23 07:30N 48°23' W 004°30'0 0.0
2018-Feb-22 07:43N 48°23' W 004°30'  
2018-Feb-16 14:31N 48°23' W 004°30'0 0.0
2018-Feb-16 14:28N 48°23' W 004°30'0 0.1
2018-Feb-16 13:58N 48°23' W 004°30'0 0.0
2018-Feb-16 12:40N 48°23' W 004°30'210.6
2018-Feb-16 12:30N 48°21' W 004°29'3 6.8
2018-Feb-16 12:00N 48°18' W 004°27'2 3.4
2018-Feb-16 11:30N 48°20' W 004°28'3 6.4
2018-Feb-16 10:58N 48°23' W 004°30'0 0.0
2018-Feb-16 07:18N 48°23' W 004°30'310.6
2018-Feb-16 07:00N 48°20' W 004°29'0 0.6
2018-Feb-16 06:30N 48°20' W 004°29'3 5.6
2018-Feb-16 06:00N 48°23' W 004°30'0 0.0
2018-Feb-15 18:09N 48°23' W 004°30'1 4.8
2018-Feb-15 18:00N 48°22' W 004°29'4 8.9
2018-Feb-15 17:31N 48°18' W 004°29'1 2.7
2018-Feb-15 17:01N 48°19' W 004°28'4 8.0
2018-Feb-15 16:29N 48°23' W 004°30'0 0.5
2018-Feb-15 16:01N 48°23' W 004°30'5 9.6
2018-Feb-15 15:29N 48°18' W 004°31'4 8.6
2018-Feb-15 15:01N 48°22' W 004°29'1 0.2
2018-Feb-15 07:30N 48°23' W 004°30'510.4
2018-Feb-15 07:00N 48°18' W 004°31'510.3
2018-Feb-15 06:31N 48°23' W 004°30'0 0.0
2018-Feb-14 18:12N 48°23' W 004°30'1 7.3
2018-Feb-14 18:01N 48°22' W 004°29'4 7.1
2018-Feb-14 17:30N 48°18' W 004°27'1 2.2
2018-Feb-14 17:01N 48°19' W 004°28'4 7.5
2018-Feb-14 16:30N 48°23' W 004°30'0 0.3
2018-Feb-14 16:00N 48°23' W 004°30'5 9.8
2018-Feb-14 15:29N 48°18' W 004°31'5 9.5
2018-Feb-14 15:01N 48°22' W 004°29'1 0.1
2018-Feb-14 08:21N 48°23' W 004°30'0 0.0
2018-Feb-14 07:31N 48°23' W 004°30'0 0.0
2018-Feb-14 07:30N 48°23' W 004°30'510.1
2018-Feb-14 06:58N 48°18' W 004°31'511.0
2018-Feb-14 06:30N 48°23' W 004°30'0 0.0
2018-Feb-13 18:12N 48°23' W 004°30'1 7.6
2018-Feb-13 18:00N 48°22' W 004°29'4 7.7
2018-Feb-13 17:31N 48°18' W 004°27'1 3.0
2018-Feb-13 17:01N 48°19' W 004°28'4 7.3
2018-Feb-13 16:29N 48°23' W 004°30'  
Track history (hours):
 
Tides and Currents Weather Stations Pressure Air Temp Water Temp Dewpoint Dewpoint Depression Visibility Wind Speed Wind Dir Waves Ship Positions

Arun

Last reported at 2018-Feb-23 16:18 UTC. Time now 2018-Feb-25 08:21 UTC.
Position N 48°23' W 004°30'.

Length 35 m; draft 1.7 m.

Type: Passenger vessel. MMSI: 227612860.

Date/timePositionNaut miles runAvg speedWind from/ knotsBaromVisibWave heightAir tempDewpointWater temp
2018-Feb-23 16:18N 48°23' W 004°30'2 6.9
2018-Feb-23 16:00N 48°21' W 004°29'3 6.2
2018-Feb-23 15:29N 48°18' W 004°31'510.5
2018-Feb-23 14:59N 48°23' W 004°30'0 0.0
2018-Feb-23 14:29N 48°23' W 004°30'0 0.0
2018-Feb-23 13:59N 48°23' W 004°30'0 0.0
2018-Feb-23 13:29N 48°23' W 004°30'0 0.0
2018-Feb-23 12:59N 48°23' W 004°30'0 0.0
2018-Feb-23 12:29N 48°23' W 004°30'0 0.0
2018-Feb-23 11:59N 48°23' W 004°30'0 0.0
2018-Feb-23 11:30N 48°23' W 004°30'510.5
2018-Feb-23 11:00N 48°18' W 004°31'4 7.9
2018-Feb-23 10:31N 48°17' W 004°25'712.5
2018-Feb-23 09:58N 48°23' W 004°30'0 0.0
2018-Feb-23 07:45N 48°23' W 004°30'0 0.1
2018-Feb-23 07:30N 48°23' W 004°30'0 0.0
2018-Feb-22 07:43N 48°23' W 004°30'  
2018-Feb-16 14:31N 48°23' W 004°30'0 0.0
2018-Feb-16 14:28N 48°23' W 004°30'0 0.1
2018-Feb-16 13:58N 48°23' W 004°30'0 0.0
2018-Feb-16 12:40N 48°23' W 004°30'210.6
2018-Feb-16 12:30N 48°21' W 004°29'3 6.8
2018-Feb-16 12:00N 48°18' W 004°27'2 3.4
2018-Feb-16 11:30N 48°20' W 004°28'3 6.4
2018-Feb-16 10:58N 48°23' W 004°30'0 0.0
2018-Feb-16 07:18N 48°23' W 004°30'310.6
2018-Feb-16 07:00N 48°20' W 004°29'0 0.6
2018-Feb-16 06:30N 48°20' W 004°29'3 5.6
2018-Feb-16 06:00N 48°23' W 004°30'0 0.0
2018-Feb-15 18:09N 48°23' W 004°30'1 4.8
2018-Feb-15 18:00N 48°22' W 004°29'4 8.9
2018-Feb-15 17:31N 48°18' W 004°29'1 2.7
2018-Feb-15 17:01N 48°19' W 004°28'4 8.0
2018-Feb-15 16:29N 48°23' W 004°30'0 0.5
2018-Feb-15 16:01N 48°23' W 004°30'5 9.6
2018-Feb-15 15:29N 48°18' W 004°31'4 8.6
2018-Feb-15 15:01N 48°22' W 004°29'1 0.2
2018-Feb-15 07:30N 48°23' W 004°30'510.4
2018-Feb-15 07:00N 48°18' W 004°31'510.3
2018-Feb-15 06:31N 48°23' W 004°30'0 0.0
2018-Feb-14 18:12N 48°23' W 004°30'1 7.3
2018-Feb-14 18:01N 48°22' W 004°29'4 7.1
2018-Feb-14 17:30N 48°18' W 004°27'1 2.2
2018-Feb-14 17:01N 48°19' W 004°28'4 7.5
2018-Feb-14 16:30N 48°23' W 004°30'0 0.3
2018-Feb-14 16:00N 48°23' W 004°30'5 9.8
2018-Feb-14 15:29N 48°18' W 004°31'5 9.5
2018-Feb-14 15:01N 48°22' W 004°29'1 0.1
2018-Feb-14 08:21N 48°23' W 004°30'0 0.0
2018-Feb-14 07:31N 48°23' W 004°30'0 0.0
2018-Feb-14 07:30N 48°23' W 004°30'510.1
2018-Feb-14 06:58N 48°18' W 004°31'511.0
2018-Feb-14 06:30N 48°23' W 004°30'0 0.0
2018-Feb-13 18:12N 48°23' W 004°30'1 7.6
2018-Feb-13 18:00N 48°22' W 004°29'4 7.7
2018-Feb-13 17:31N 48°18' W 004°27'1 3.0
2018-Feb-13 17:01N 48°19' W 004°28'4 7.3
2018-Feb-13 16:29N 48°23' W 004°30'  

Dump ship's entire track history